Terminal Aerodrome Forecast
Issued by NWS Wilmington, OH

Current Version | Previous Version | Graphics & Text | Print | Product List | Glossary On
Versions: 1 2 3 4 5 6 7 8 9 10 11 12 13 14 15 16 17 18 19 20 21 22 23 24 25
000
FTUS41 KILN 301100
TAFCVG
TAF
KCVG 301132Z 3012/3118 VRB03KT P6SM BKN040
     FM301600 VRB03KT P6SM SCT040
     FM302000 VRB03KT P6SM SCT120 BKN200
     FM310000 00000KT P6SM BKN080
     FM310900 26004KT P6SM VCSH BKN050 OVC080
     FM311600 29010KT 5SM -SHRA BKN025 OVC040=

USA.gov is the U.S. government's official web portal to all federal, state and local government web resources and services.